sensor_id;sensor_type;location;lat;lon;timestamp;pressure;altitude;pressure_sealevel;temperature;humidity
29461;BME280;16428;47.836;35.106;2023-04-27T00:00:08;100475.16;;;14.49;100.00
29461;BME280;16428;47.836;35.106;2023-04-27T00:02:38;100468.91;;;14.61;100.00
29461;BME280;16428;47.836;35.106;2023-04-27T00:05:06;100458.88;;;14.68;100.00
29461;BME280;16428;47.836;35.106;2023-04-27T00:07:35;100445.38;;;14.82;100.00
29461;BME280;16428;47.836;35.106;2023-04-27T00:10:03;100437.22;;;14.88;100.00
29461;BME280;16428;47.836;35.106;2023-04-27T00:12:30;100425.53;;;15.01;100.00
29461;BME280;16428;47.836;35.106;2023-04-27T00:14:58;100422.63;;;15.09;100.00
29461;BME280;16428;47.836;35.106;2023-04-27T00:17:25;100420.53;;;15.04;100.00
29461;BME280;16428;47.836;35.106;2023-04-27T00:19:53;100427.63;;;15.05;100.00
29461;BME280;16428;47.836;35.106;2023-04-27T00:22:21;100425.38;;;14.96;100.00
29461;BME280;16428;47.836;35.106;2023-04-27T00:24:48;100418.53;;;14.80;100.00
29461;BME280;16428;47.836;35.106;2023-04-27T00:27:16;100431.41;;;14.85;100.00
29461;BME280;16428;47.836;35.106;2023-04-27T00:29:43;100427.28;;;14.75;100.00
29461;BME280;16428;47.836;35.106;2023-04-27T00:32:11;100421.69;;;14.64;100.00
29461;BME280;16428;47.836;35.106;2023-04-27T00:34:38;100416.06;;;14.65;100.00
29461;BME280;16428;47.836;35.106;2023-04-27T00:37:05;100409.22;;;14.63;100.00
29461;BME280;16428;47.836;35.106;2023-04-27T00:39:33;100413.78;;;14.62;100.00
29461;BME280;16428;47.836;35.106;2023-04-27T00:42:02;100433.13;;;14.59;100.00
29461;BME280;16428;47.836;35.106;2023-04-27T00:44:29;100435.22;;;14.51;100.00
29461;BME280;16428;47.836;35.106;2023-04-27T00:46:57;100440.16;;;14.21;100.00
29461;BME280;16428;47.836;35.106;2023-04-27T00:49:25;100439.16;;;14.15;100.00
29461;BME280;16428;47.836;35.106;2023-04-27T00:51:53;100427.09;;;14.04;100.00
29461;BME280;16428;47.836;35.106;2023-04-27T00:54:21;100422.28;;;13.93;100.00
29461;BME280;16428;47.836;35.106;2023-04-27T00:56:50;100410.66;;;13.99;100.00
29461;BME280;16428;47.836;35.106;2023-04-27T00:59:18;100383.88;;;14.04;100.00
29461;BME280;16428;47.836;35.106;2023-04-27T01:01:46;100396.94;;;14.21;100.00
29461;BME280;16428;47.836;35.106;2023-04-27T01:04:15;100403.19;;;14.21;100.00
29461;BME280;16428;47.836;35.106;2023-04-27T01:06:44;100408.59;;;14.15;100.00
29461;BME280;16428;47.836;35.106;2023-04-27T01:09:12;100404.44;;;14.19;100.00
29461;BME280;16428;47.836;35.106;2023-04-27T01:11:40;100395.09;;;14.15;100.00
29461;BME280;16428;47.836;35.106;2023-04-27T01:14:08;100380.75;;;14.07;100.00
29461;BME280;16428;47.836;35.106;2023-04-27T01:16:36;100376.16;;;14.08;100.00
29461;BME280;16428;47.836;35.106;2023-04-27T01:19:04;100374.91;;;14.24;100.00
29461;BME280;16428;47.836;35.106;2023-04-27T01:21:33;100373.88;;;14.25;100.00
29461;BME280;16428;47.836;35.106;2023-04-27T01:24:00;100370.75;;;14.28;100.00
29461;BME280;16428;47.836;35.106;2023-04-27T01:26:28;100374.53;;;14.47;100.00
29461;BME280;16428;47.836;35.106;2023-04-27T01:28:55;100376.97;;;14.55;100.00
29461;BME280;16428;47.836;35.106;2023-04-27T01:31:22;100368.06;;;14.41;100.00
29461;BME280;16428;47.836;35.106;2023-04-27T01:33:50;100358.94;;;14.42;100.00
29461;BME280;16428;47.836;35.106;2023-04-27T01:36:17;100346.66;;;14.33;100.00
29461;BME280;16428;47.836;35.106;2023-04-27T01:38:45;100345.38;;;14.55;100.00
29461;BME280;16428;47.836;35.106;2023-04-27T01:41:12;100346.63;;;14.59;100.00
29461;BME280;16428;47.836;35.106;2023-04-27T01:43:40;100364.94;;;14.57;100.00
29461;BME280;16428;47.836;35.106;2023-04-27T01:46:11;100386.09;;;14.73;100.00
29461;BME280;16428;47.836;35.106;2023-04-27T01:48:39;100368.88;;;14.61;100.00
29461;BME280;16428;47.836;35.106;2023-04-27T01:51:07;100374.06;;;14.63;100.00
29461;BME280;16428;47.836;35.106;2023-04-27T01:53:35;100374.28;;;14.61;100.00
29461;BME280;16428;47.836;35.106;2023-04-27T01:56:03;100364.31;;;14.62;100.00
29461;BME280;16428;47.836;35.106;2023-04-27T01:58:31;100369.47;;;14.70;100.00
29461;BME280;16428;47.836;35.106;2023-04-27T02:00:58;100365.31;;;14.67;100.00
29461;BME280;16428;47.836;35.106;2023-04-27T02:03:25;100370.25;;;14.84;100.00
29461;BME280;16428;47.836;35.106;2023-04-27T02:05:53;100375.88;;;14.89;100.00
29461;BME280;16428;47.836;35.106;2023-04-27T02:08:21;100379.19;;;14.91;100.00
29461;BME280;16428;47.836;35.106;2023-04-27T02:10:48;100370.47;;;14.89;100.00
29461;BME280;16428;47.836;35.106;2023-04-27T02:13:16;100361.97;;;14.78;100.00
29461;BME280;16428;47.836;35.106;2023-04-27T02:15:43;100356.31;;;14.87;100.00
29461;BME280;16428;47.836;35.106;2023-04-27T02:18:11;100373.16;;;14.89;100.00
29461;BME280;16428;47.836;35.106;2023-04-27T02:20:40;100364.44;;;14.87;100.00
29461;BME280;16428;47.836;35.106;2023-04-27T02:23:08;100368.63;;;14.76;100.00
29461;BME280;16428;47.836;35.106;2023-04-27T02:25:36;100368.16;;;14.92;100.00
29461;BME280;16428;47.836;35.106;2023-04-27T02:28:04;100382.69;;;14.98;100.00
29461;BME280;16428;47.836;35.106;2023-04-27T02:30:32;100376.06;;;14.94;100.00
29461;BME280;16428;47.836;35.106;2023-04-27T02:32:59;100366.47;;;14.98;100.00
29461;BME280;16428;47.836;35.106;2023-04-27T02:35:27;100369.41;;;14.90;100.00
29461;BME280;16428;47.836;35.106;2023-04-27T02:37:54;100370.50;;;14.75;100.00
29461;BME280;16428;47.836;35.106;2023-04-27T02:40:22;100372.56;;;14.80;100.00
29461;BME280;16428;47.836;35.106;2023-04-27T02:42:49;100376.13;;;14.67;100.00
29461;BME280;16428;47.836;35.106;2023-04-27T02:45:17;100363.69;;;14.66;100.00
29461;BME280;16428;47.836;35.106;2023-04-27T02:47:45;100360.38;;;14.51;100.00
29461;BME280;16428;47.836;35.106;2023-04-27T02:50:13;100358.94;;;14.42;100.00
29461;BME280;16428;47.836;35.106;2023-04-27T02:52:41;100375.34;;;14.47;100.00
29461;BME280;16428;47.836;35.106;2023-04-27T02:55:08;100370.38;;;14.44;100.00
29461;BME280;16428;47.836;35.106;2023-04-27T02:57:36;100381.16;;;14.57;100.00
29461;BME280;16428;47.836;35.106;2023-04-27T03:00:04;100371.63;;;14.48;100.00
29461;BME280;16428;47.836;35.106;2023-04-27T03:02:33;100359.56;;;14.51;100.00
29461;BME280;16428;47.836;35.106;2023-04-27T03:05:00;100364.47;;;14.67;100.00
29461;BME280;16428;47.836;35.106;2023-04-27T03:07:28;100358.47;;;14.65;100.00
29461;BME280;16428;47.836;35.106;2023-04-27T03:09:58;100362.44;;;14.62;100.00
29461;BME280;16428;47.836;35.106;2023-04-27T03:12:25;100363.69;;;14.66;100.00
29461;BME280;16428;47.836;35.106;2023-04-27T03:14:53;100380.09;;;14.65;100.00
29461;BME280;16428;47.836;35.106;2023-04-27T03:17:20;100381.16;;;14.57;100.00
29461;BME280;16428;47.836;35.106;2023-04-27T03:19:47;100377.81;;;14.55;100.00
29461;BME280;16428;47.836;35.106;2023-04-27T03:22:15;100374.72;;;14.45;100.00
29461;BME280;16428;47.836;35.106;2023-04-27T03:24:43;100373.28;;;14.49;100.00
29461;BME280;16428;47.836;35.106;2023-04-27T03:27:10;100379.94;;;14.40;100.00
29461;BME280;16428;47.836;35.106;2023-04-27T03:29:37;100387.81;;;14.41;100.00
29461;BME280;16428;47.836;35.106;2023-04-27T03:32:05;100391.16;;;14.43;100.00
29461;BME280;16428;47.836;35.106;2023-04-27T03:34:33;100379.09;;;14.46;100.00
29461;BME280;16428;47.836;35.106;2023-04-27T03:37:00;100385.13;;;14.35;100.00
29461;BME280;16428;47.836;35.106;2023-04-27T03:39:28;100379.09;;;14.46;100.00
29461;BME280;16428;47.836;35.106;2023-04-27T03:41:55;100376.59;;;14.51;100.00
29461;BME280;16428;47.836;35.106;2023-04-27T03:44:23;100371.38;;;14.56;100.00
29461;BME280;16428;47.836;35.106;2023-04-27T03:46:51;100373.28;;;14.49;100.00
29461;BME280;16428;47.836;35.106;2023-04-27T03:49:18;100389.47;;;14.56;100.00
29461;BME280;16428;47.836;35.106;2023-04-27T03:51:46;100396.13;;;14.40;100.00
29461;BME280;16428;47.836;35.106;2023-04-27T03:54:13;100399.84;;;14.39;100.00
29461;BME280;16428;47.836;35.106;2023-04-27T03:56:41;100394.88;;;14.09;100.00
29461;BME280;16428;47.836;35.106;2023-04-27T03:59:08;100382.41;;;14.22;100.00
29461;BME280;16428;47.836;35.106;2023-04-27T04:01:36;100386.56;;;14.18;100.00
29461;BME280;16428;47.836;35.106;2023-04-27T04:04:06;100387.81;;;14.28;100.00
29461;BME280;16428;47.836;35.106;2023-04-27T04:06:33;100377.41;;;14.25;100.00
29461;BME280;16428;47.836;35.106;2023-04-27T04:09:01;100388.25;;;14.45;100.00
29461;BME280;16428;47.836;35.106;2023-04-27T04:11:31;100395.53;;;14.51;100.00
29461;BME280;16428;47.836;35.106;2023-04-27T04:13:58;100391.75;;;14.52;100.00
29461;BME280;16428;47.836;35.106;2023-04-27T04:16:26;100397.78;;;14.54;100.00
29461;BME280;16428;47.836;35.106;2023-04-27T04:18:53;100390.25;;;14.69;100.00
29461;BME280;16428;47.836;35.106;2023-04-27T04:21:21;100388.59;;;14.68;100.00
29461;BME280;16428;47.836;35.106;2023-04-27T04:23:48;100380.69;;;14.73;100.00
29461;BME280;16428;47.836;35.106;2023-04-27T04:26:16;100397.28;;;14.84;100.00
29461;BME280;16428;47.836;35.106;2023-04-27T04:28:43;100388.34;;;14.90;100.00
29461;BME280;16428;47.836;35.106;2023-04-27T04:31:11;100383.19;;;14.82;100.00
29461;BME280;16428;47.836;35.106;2023-04-27T04:33:41;100385.22;;;14.86;100.00
29461;BME280;16428;47.836;35.106;2023-04-27T04:36:08;100379.00;;;14.86;100.00
29461;BME280;16428;47.836;35.106;2023-04-27T04:38:37;100385.38;;;15.04;100.00
29461;BME280;16428;47.836;35.106;2023-04-27T04:41:05;100382.94;;;14.96;100.00
29461;BME280;16428;47.836;35.106;2023-04-27T04:43:34;100388.25;;;15.16;100.00
29461;BME280;16428;47.836;35.106;2023-04-27T04:46:01;100401.31;;;15.26;100.00
29461;BME280;16428;47.836;35.106;2023-04-27T04:48:29;100399.81;;;15.30;100.00
29461;BME280;16428;47.836;35.106;2023-04-27T04:50:56;100392.16;;;15.27;100.00
29461;BME280;16428;47.836;35.106;2023-04-27T04:53:24;100379.34;;;15.09;100.00
29461;BME280;16428;47.836;35.106;2023-04-27T04:55:52;100383.38;;;15.31;100.00
29461;BME280;16428;47.836;35.106;2023-04-27T04:58:19;100380.53;;;15.13;100.00
29461;BME280;16428;47.836;35.106;2023-04-27T05:00:47;100382.66;;;15.11;100.00
29461;BME280;16428;47.836;35.106;2023-04-27T05:03:14;100383.09;;;15.01;100.00
29461;BME280;16428;47.836;35.106;2023-04-27T05:05:42;100380.53;;;15.20;100.00
29461;BME280;16428;47.836;35.106;2023-04-27T05:08:10;100371.38;;;15.14;100.00
29461;BME280;16428;47.836;35.106;2023-04-27T05:10:37;100381.22;;;15.46;100.00
29461;BME280;16428;47.836;35.106;2023-04-27T05:13:05;100375.09;;;15.64;100.00
29461;BME280;16428;47.836;35.106;2023-04-27T05:15:36;100377.69;;;15.84;100.00
29461;BME280;16428;47.836;35.106;2023-04-27T05:18:03;100371.22;;;15.85;100.00
29461;BME280;16428;47.836;35.106;2023-04-27T05:20:33;100369.13;;;16.12;100.00
29461;BME280;16428;47.836;35.106;2023-04-27T05:23:01;100381.84;;;16.11;100.00
29461;BME280;16428;47.836;35.106;2023-04-27T05:25:32;100373.72;;;16.11;100.00
29461;BME280;16428;47.836;35.106;2023-04-27T05:28:00;100369.66;;;16.21;100.00
29461;BME280;16428;47.836;35.106;2023-04-27T05:30:27;100381.38;;;16.39;100.00
29461;BME280;16428;47.836;35.106;2023-04-27T05:32:55;100382.22;;;16.40;100.00
29461;BME280;16428;47.836;35.106;2023-04-27T05:35:22;100376.78;;;16.40;100.00
29461;BME280;16428;47.836;35.106;2023-04-27T05:37:50;100371.22;;;16.53;100.00
29461;BME280;16428;47.836;35.106;2023-04-27T05:40:17;100375.44;;;16.74;99.80
29461;BME280;16428;47.836;35.106;2023-04-27T05:42:45;100377.59;;;16.83;98.80
29461;BME280;16428;47.836;35.106;2023-04-27T05:45:13;100376.56;;;17.03;98.04
29461;BME280;16428;47.836;35.106;2023-04-27T05:47:41;100369.75;;;17.12;97.16
29461;BME280;16428;47.836;35.106;2023-04-27T05:50:09;100373.97;;;17.26;97.74
29461;BME280;16428;47.836;35.106;2023-04-27T05:52:38;100364.31;;;17.30;96.49
29461;BME280;16428;47.836;35.106;2023-04-27T05:55:06;100370.16;;;17.45;96.00
29461;BME280;16428;47.836;35.106;2023-04-27T05:57:34;100356.56;;;17.45;95.61
29461;BME280;16428;47.836;35.106;2023-04-27T06:00:02;100352.91;;;17.70;95.55
29461;BME280;16428;47.836;35.106;2023-04-27T06:02:35;100353.78;;;17.52;94.72
29461;BME280;16428;47.836;35.106;2023-04-27T06:05:03;100353.97;;;17.69;92.81
29461;BME280;16428;47.836;35.106;2023-04-27T06:07:31;100348.84;;;17.61;94.53
29461;BME280;16428;47.836;35.106;2023-04-27T06:09:58;100350.31;;;17.75;92.70
29461;BME280;16428;47.836;35.106;2023-04-27T06:12:26;100348.78;;;17.79;92.64
29461;BME280;16428;47.836;35.106;2023-04-27T06:14:53;100349.72;;;17.73;92.84
29461;BME280;16428;47.836;35.106;2023-04-27T06:17:21;100350.00;;;17.83;93.53
29461;BME280;16428;47.836;35.106;2023-04-27T06:19:48;100350.97;;;18.00;92.78
29461;BME280;16428;47.836;35.106;2023-04-27T06:22:15;100347.88;;;17.85;92.95
29461;BME280;16428;47.836;35.106;2023-04-27T06:24:43;100348.13;;;18.07;91.46
29461;BME280;16428;47.836;35.106;2023-04-27T06:27:10;100351.09;;;18.28;90.41
29461;BME280;16428;47.836;35.106;2023-04-27T06:29:39;100353.94;;;18.45;90.48
29461;BME280;16428;47.836;35.106;2023-04-27T06:32:06;100361.38;;;18.50;89.17
29461;BME280;16428;47.836;35.106;2023-04-27T06:34:34;100360.22;;;18.46;88.69
29461;BME280;16428;47.836;35.106;2023-04-27T06:37:01;100357.25;;;18.47;88.71
29461;BME280;16428;47.836;35.106;2023-04-27T06:39:29;100356.31;;;18.77;87.81
29461;BME280;16428;47.836;35.106;2023-04-27T06:41:56;100355.25;;;18.78;88.38
29461;BME280;16428;47.836;35.106;2023-04-27T06:44:24;100359.91;;;19.06;86.45
29461;BME280;16428;47.836;35.106;2023-04-27T06:46:52;100364.75;;;19.04;86.60
29461;BME280;16428;47.836;35.106;2023-04-27T06:49:19;100368.88;;;19.18;85.72
29461;BME280;16428;47.836;35.106;2023-04-27T06:51:47;100372.66;;;19.17;86.18
29461;BME280;16428;47.836;35.106;2023-04-27T06:54:15;100360.50;;;19.08;86.77
29461;BME280;16428;47.836;35.106;2023-04-27T06:56:42;100357.84;;;19.13;86.56
29461;BME280;16428;47.836;35.106;2023-04-27T06:59:11;100355.91;;;19.25;86.27
29461;BME280;16428;47.836;35.106;2023-04-27T07:01:39;100352.72;;;19.28;85.23
29461;BME280;16428;47.836;35.106;2023-04-27T07:04:06;100351.75;;;19.34;84.16
29461;BME280;16428;47.836;35.106;2023-04-27T07:06:34;100360.06;;;19.56;84.12
29461;BME280;16428;47.836;35.106;2023-04-27T07:09:02;100363.56;;;19.51;84.05
29461;BME280;16428;47.836;35.106;2023-04-27T07:11:52;100360.94;;;19.73;85.14
29461;BME280;16428;47.836;35.106;2023-04-27T07:14:19;100364.09;;;19.82;83.59
29461;BME280;16428;47.836;35.106;2023-04-27T07:16:47;100355.03;;;19.93;82.16
29461;BME280;16428;47.836;35.106;2023-04-27T07:19:14;100357.00;;;19.97;82.31
29461;BME280;16428;47.836;35.106;2023-04-27T07:21:42;100350.44;;;20.32;81.94
29461;BME280;16428;47.836;35.106;2023-04-27T07:24:09;100355.91;;;20.49;80.94
29461;BME280;16428;47.836;35.106;2023-04-27T07:26:37;100355.50;;;20.57;80.34
29461;BME280;16428;47.836;35.106;2023-04-27T07:29:04;100356.81;;;20.54;77.94
29461;BME280;16428;47.836;35.106;2023-04-27T07:31:49;100362.53;;;20.53;72.09
29461;BME280;16428;47.836;35.106;2023-04-27T07:34:19;100359.31;;;20.56;67.05
29461;BME280;16428;47.836;35.106;2023-04-27T07:36:46;100350.88;;;20.57;67.42
29461;BME280;16428;47.836;35.106;2023-04-27T07:39:14;100351.22;;;20.44;69.15
29461;BME280;16428;47.836;35.106;2023-04-27T07:41:41;100350.03;;;20.57;71.27
29461;BME280;16428;47.836;35.106;2023-04-27T07:44:09;100351.41;;;20.98;69.14
29461;BME280;16428;47.836;35.106;2023-04-27T07:46:38;100356.19;;;21.08;65.63
29461;BME280;16428;47.836;35.106;2023-04-27T07:49:06;100352.22;;;20.98;66.59
29461;BME280;16428;47.836;35.106;2023-04-27T07:51:34;100351.34;;;21.15;69.67
29461;BME280;16428;47.836;35.106;2023-04-27T07:54:01;100350.22;;;21.32;70.90
29461;BME280;16428;47.836;35.106;2023-04-27T07:56:29;100345.22;;;21.51;67.22
29461;BME280;16428;47.836;35.106;2023-04-27T07:58:57;100345.56;;;21.60;70.40
29461;BME280;16428;47.836;35.106;2023-04-27T08:01:24;100352.34;;;21.52;68.01
29461;BME280;16428;47.836;35.106;2023-04-27T08:03:52;100354.81;;;21.54;68.77
29461;BME280;16428;47.836;35.106;2023-04-27T08:06:20;100351.44;;;21.20;66.45
29461;BME280;16428;47.836;35.106;2023-04-27T08:08:49;100351.72;;;21.45;63.70
29461;BME280;16428;47.836;35.106;2023-04-27T08:11:16;100360.16;;;21.70;62.46
29461;BME280;16428;47.836;35.106;2023-04-27T08:13:44;100351.91;;;21.65;56.63
29461;BME280;16428;47.836;35.106;2023-04-27T08:16:11;100351.19;;;21.75;55.51
29461;BME280;16428;47.836;35.106;2023-04-27T08:18:39;100350.16;;;21.54;54.70
29461;BME280;16428;47.836;35.106;2023-04-27T08:21:06;100359.94;;;22.04;52.44
29461;BME280;16428;47.836;35.106;2023-04-27T08:23:34;100358.75;;;21.95;53.13
29461;BME280;16428;47.836;35.106;2023-04-27T08:26:03;100362.09;;;22.02;52.45
29461;BME280;16428;47.836;35.106;2023-04-27T08:28:30;100356.94;;;22.05;53.40
29461;BME280;16428;47.836;35.106;2023-04-27T08:30:58;100354.47;;;22.04;54.20
29461;BME280;16428;47.836;35.106;2023-04-27T08:33:26;100360.09;;;21.92;53.71
29461;BME280;16428;47.836;35.106;2023-04-27T08:35:53;100356.63;;;22.02;53.96
29461;BME280;16428;47.836;35.106;2023-04-27T08:38:21;100356.31;;;21.98;54.04
29461;BME280;16428;47.836;35.106;2023-04-27T08:40:51;100350.50;;;22.22;53.86
29461;BME280;16428;47.836;35.106;2023-04-27T08:43:19;100353.22;;;21.90;55.71
29461;BME280;16428;47.836;35.106;2023-04-27T08:45:48;100351.13;;;21.70;56.71
29461;BME280;16428;47.836;35.106;2023-04-27T08:48:19;100353.84;;;21.97;57.20
29461;BME280;16428;47.836;35.106;2023-04-27T08:50:49;100348.59;;;21.90;57.75
29461;BME280;16428;47.836;35.106;2023-04-27T08:53:20;100336.31;;;21.93;58.58
29461;BME280;16428;47.836;35.106;2023-04-27T08:55:49;100337.75;;;22.37;58.87
29461;BME280;16428;47.836;35.106;2023-04-27T08:58:16;100342.97;;;22.39;58.52
29461;BME280;16428;47.836;35.106;2023-04-27T09:00:44;100336.44;;;22.87;55.54
29461;BME280;16428;47.836;35.106;2023-04-27T09:03:22;100333.63;;;22.77;57.54
29461;BME280;16428;47.836;35.106;2023-04-27T09:05:50;100340.06;;;22.56;57.51
29461;BME280;16428;47.836;35.106;2023-04-27T09:08:45;100343.31;;;22.53;56.87
29461;BME280;16428;47.836;35.106;2023-04-27T09:11:27;100337.06;;;22.57;56.44
29461;BME280;16428;47.836;35.106;2023-04-27T09:13:59;100343.53;;;22.41;57.86
29461;BME280;16428;47.836;35.106;2023-04-27T09:16:28;100342.16;;;22.86;57.11
29461;BME280;16428;47.836;35.106;2023-04-27T09:18:57;100338.97;;;23.04;57.79
29461;BME280;16428;47.836;35.106;2023-04-27T09:21:27;100338.97;;;23.04;57.40
29461;BME280;16428;47.836;35.106;2023-04-27T09:23:55;100338.13;;;23.08;57.77
29461;BME280;16428;47.836;35.106;2023-04-27T09:26:25;100335.41;;;23.03;57.60
29461;BME280;16428;47.836;35.106;2023-04-27T09:28:54;100330.03;;;23.44;58.32
29461;BME280;16428;47.836;35.106;2023-04-27T09:31:34;100331.91;;;23.38;57.97
29461;BME280;16428;47.836;35.106;2023-04-27T09:34:02;100323.41;;;23.30;58.34
29461;BME280;16428;47.836;35.106;2023-04-27T09:36:30;100330.81;;;23.29;59.49
29461;BME280;16428;47.836;35.106;2023-04-27T09:39:02;100331.22;;;23.78;56.54
29461;BME280;16428;47.836;35.106;2023-04-27T09:41:31;100334.50;;;23.91;57.35
29461;BME280;16428;47.836;35.106;2023-04-27T09:43:59;100342.75;;;23.96;57.71
29461;BME280;16428;47.836;35.106;2023-04-27T09:46:28;100345.47;;;24.11;57.49
29461;BME280;16428;47.836;35.106;2023-04-27T09:48:56;100341.66;;;24.27;57.12
29461;BME280;16428;47.836;35.106;2023-04-27T09:51:24;100337.22;;;24.31;58.30
29461;BME280;16428;47.836;35.106;2023-04-27T09:53:56;100347.66;;;24.19;58.36
29461;BME280;16428;47.836;35.106;2023-04-27T09:57:04;100343.97;;;24.79;57.09
29461;BME280;16428;47.836;35.106;2023-04-27T10:02:53;100342.72;;;24.41;57.08
29461;BME280;16428;47.836;35.106;2023-04-27T10:08:12;100337.75;;;24.53;54.64
29461;BME280;16428;47.836;35.106;2023-04-27T10:10:45;100334.78;;;24.40;52.75
29461;BME280;16428;47.836;35.106;2023-04-27T10:13:23;100342.19;;;23.78;53.38
29461;BME280;16428;47.836;35.106;2023-04-27T10:15:52;100346.56;;;23.74;53.94
29461;BME280;16428;47.836;35.106;2023-04-27T10:18:28;100345.47;;;23.80;54.77
29461;BME280;16428;47.836;35.106;2023-04-27T10:21:09;100346.03;;;24.23;55.68
29461;BME280;16428;47.836;35.106;2023-04-27T10:23:45;100341.88;;;24.00;55.75
29461;BME280;16428;47.836;35.106;2023-04-27T10:26:21;100352.03;;;24.20;56.52
29461;BME280;16428;47.836;35.106;2023-04-27T10:28:56;100341.63;;;24.22;54.54
29461;BME280;16428;47.836;35.106;2023-04-27T10:31:27;100344.34;;;24.17;55.55
29461;BME280;16428;47.836;35.106;2023-04-27T10:34:08;100349.84;;;24.47;56.00
29461;BME280;16428;47.836;35.106;2023-04-27T10:36:37;100346.50;;;24.71;54.90
29461;BME280;16428;47.836;35.106;2023-04-27T10:39:20;100342.50;;;25.17;53.95
29461;BME280;16428;47.836;35.106;2023-04-27T10:42:10;100353.53;;;25.07;54.40
29461;BME280;16428;47.836;35.106;2023-04-27T10:44:38;100351.72;;;25.37;53.28
29461;BME280;16428;47.836;35.106;2023-04-27T10:47:15;100359.34;;;25.01;53.92
29461;BME280;16428;47.836;35.106;2023-04-27T10:49:43;100354.06;;;25.09;53.93
29461;BME280;16428;47.836;35.106;2023-04-27T10:52:10;100348.22;;;25.21;54.38
29461;BME280;16428;47.836;35.106;2023-04-27T10:54:38;100352.19;;;25.00;54.21
29461;BME280;16428;47.836;35.106;2023-04-27T10:57:07;100353.66;;;24.62;56.60
29461;BME280;16428;47.836;35.106;2023-04-27T10:59:48;100355.56;;;24.61;56.71
29461;BME280;16428;47.836;35.106;2023-04-27T11:02:16;100361.91;;;24.51;56.82
29461;BME280;16428;47.836;35.106;2023-04-27T11:04:45;100355.91;;;23.94;58.34
29461;BME280;16428;47.836;35.106;2023-04-27T11:07:25;100361.91;;;24.51;56.11
29461;BME280;16428;47.836;35.106;2023-04-27T11:09:54;100354.50;;;24.16;57.82
29461;BME280;16428;47.836;35.106;2023-04-27T11:12:21;100361.38;;;24.09;58.17
29461;BME280;16428;47.836;35.106;2023-04-27T11:14:56;100358.09;;;23.97;58.45
29461;BME280;16428;47.836;35.106;2023-04-27T11:17:28;100356.97;;;24.18;58.99
29461;BME280;16428;47.836;35.106;2023-04-27T11:19:56;100362.69;;;23.50;58.01
29461;BME280;16428;47.836;35.106;2023-04-27T11:22:24;100362.19;;;23.79;57.99
29461;BME280;16428;47.836;35.106;2023-04-27T11:24:52;100355.91;;;23.94;56.38
29461;BME280;16428;47.836;35.106;2023-04-27T11:27:19;100360.88;;;24.27;55.78
29461;BME280;16428;47.836;35.106;2023-04-27T11:29:49;100364.13;;;24.34;54.77
29461;BME280;16428;47.836;35.106;2023-04-27T11:32:18;100360.31;;;24.40;54.20
29461;BME280;16428;47.836;35.106;2023-04-27T11:34:50;100357.00;;;24.43;54.79
29461;BME280;16428;47.836;35.106;2023-04-27T11:37:24;100348.69;;;24.74;52.61
29461;BME280;16428;47.836;35.106;2023-04-27T11:39:53;100347.81;;;24.94;53.02
29461;BME280;16428;47.836;35.106;2023-04-27T11:42:22;100339.09;;;24.71;53.21
29461;BME280;16428;47.836;35.106;2023-04-27T11:44:55;100343.53;;;24.16;54.41
29461;BME280;16428;47.836;35.106;2023-04-27T11:47:25;100345.72;;;24.55;53.89
29461;BME280;16428;47.836;35.106;2023-04-27T11:49:55;100343.75;;;24.71;53.82
29461;BME280;16428;47.836;35.106;2023-04-27T11:52:29;100351.31;;;25.09;55.17
29461;BME280;16428;47.836;35.106;2023-04-27T11:54:59;100347.38;;;25.31;52.05
29461;BME280;16428;47.836;35.106;2023-04-27T11:57:29;100352.75;;;25.51;49.50
29461;BME280;16428;47.836;35.106;2023-04-27T12:00:00;100347.44;;;25.20;50.88
29461;BME280;16428;47.836;35.106;2023-04-27T12:02:29;100351.38;;;24.89;53.24
29461;BME280;16428;47.836;35.106;2023-04-27T12:04:58;100349.13;;;25.11;53.32
29461;BME280;16428;47.836;35.106;2023-04-27T12:07:26;100341.31;;;25.34;52.14
29461;BME280;16428;47.836;35.106;2023-04-27T12:09:53;100344.16;;;25.18;51.21
29461;BME280;16428;47.836;35.106;2023-04-27T12:12:21;100340.06;;;25.06;51.54
29461;BME280;16428;47.836;35.106;2023-04-27T12:14:50;100341.06;;;24.45;53.37
29461;BME280;16428;47.836;35.106;2023-04-27T12:17:18;100345.19;;;24.43;53.00
29461;BME280;16428;47.836;35.106;2023-04-27T12:19:45;100345.19;;;24.38;53.46
29461;BME280;16428;47.836;35.106;2023-04-27T12:22:13;100344.91;;;24.14;54.83
29461;BME280;16428;47.836;35.106;2023-04-27T12:24:40;100346.84;;;23.93;55.69
29461;BME280;16428;47.836;35.106;2023-04-27T12:27:08;100353.16;;;23.94;56.85
29461;BME280;16428;47.836;35.106;2023-04-27T12:29:35;100357.53;;;23.79;57.89
29461;BME280;16428;47.836;35.106;2023-04-27T12:32:03;100361.31;;;23.53;57.02
29461;BME280;16428;47.836;35.106;2023-04-27T12:34:32;100360.22;;;23.54;57.23
29461;BME280;16428;47.836;35.106;2023-04-27T12:36:59;100369.03;;;23.61;58.28
29461;BME280;16428;47.836;35.106;2023-04-27T12:39:27;100365.22;;;23.77;56.33
29461;BME280;16428;47.836;35.106;2023-04-27T12:41:54;100355.88;;;23.73;57.24
29461;BME280;16428;47.836;35.106;2023-04-27T12:44:22;100364.59;;;23.50;57.02
29461;BME280;16428;47.836;35.106;2023-04-27T12:46:50;100361.28;;;23.43;57.61
29461;BME280;16428;47.836;35.106;2023-04-27T12:49:17;100361.78;;;23.30;58.45